createdAt,value
2023-12-28T00:01:57.766Z,22.23
2023-12-28T00:04:19.746Z,36.20
2023-12-28T00:06:41.736Z,35.97
2023-12-28T00:09:11.115Z,31.77
2023-12-28T00:11:33.904Z,23.77
2023-12-28T00:13:55.788Z,29.00
2023-12-28T00:16:17.538Z,31.10
2023-12-28T00:18:39.300Z,31.63
2023-12-28T00:21:01.909Z,33.97
2023-12-28T00:23:23.652Z,44.73
2023-12-28T00:25:45.353Z,36.53
2023-12-28T00:28:07.250Z,46.63
2023-12-28T00:30:29.145Z,28.07
2023-12-28T00:32:51.051Z,33.40
2023-12-28T00:35:12.961Z,36.30
2023-12-28T00:37:34.777Z,57.17
2023-12-28T00:39:56.646Z,71.40
2023-12-28T00:42:20.659Z,52.03
2023-12-28T00:44:42.781Z,60.72
2023-12-28T00:47:05.286Z,57.30
2023-12-28T00:49:29.010Z,49.55
2023-12-28T00:51:50.902Z,58.73
2023-12-28T00:54:12.712Z,48.87
2023-12-28T00:56:35.294Z,30.77
2023-12-28T00:58:57.176Z,36.73
2023-12-28T01:01:19.500Z,61.87
2023-12-28T01:03:41.457Z,62.93
2023-12-28T01:06:03.528Z,56.07
2023-12-28T01:08:25.358Z,60.67
2023-12-28T01:10:50.115Z,68.83
2023-12-28T01:13:11.940Z,33.67
2023-12-28T01:15:33.719Z,55.43
2023-12-28T01:17:55.862Z,35.23
2023-12-28T01:20:17.814Z,57.13
2023-12-28T01:22:39.624Z,70.23
2023-12-28T01:25:01.334Z,49.20
2023-12-28T01:27:23.081Z,55.90
2023-12-28T01:29:44.880Z,63.27
2023-12-28T01:32:06.732Z,47.20
2023-12-28T01:34:29.368Z,47.03
2023-12-28T01:36:51.652Z,66.63
2023-12-28T01:39:13.873Z,70.40
2023-12-28T01:41:35.642Z,66.20
2023-12-28T01:43:57.399Z,87.37
2023-12-28T01:46:23.216Z,97.40
2023-12-28T01:48:49.970Z,87.20
2023-12-28T01:51:15.058Z,88.33
2023-12-28T01:53:37.853Z,75.33
2023-12-28T01:56:00.988Z,103.27
2023-12-28T01:58:24.595Z,90.43
2023-12-28T02:00:47.763Z,69.70
2023-12-28T02:03:09.951Z,73.87
2023-12-28T02:05:31.862Z,81.53
2023-12-28T02:07:53.729Z,74.13
2023-12-28T02:10:17.278Z,79.93
2023-12-28T02:12:39.393Z,92.03
2023-12-28T02:15:02.291Z,51.63
2023-12-28T02:17:34.319Z,55.27
2023-12-28T02:19:59.289Z,78.97
2023-12-28T02:22:26.184Z,105.60
2023-12-28T02:25:07.788Z,78.30
2023-12-28T02:27:29.811Z,71.23
2023-12-28T02:29:51.691Z,70.80
2023-12-28T02:32:16.961Z,62.43
2023-12-28T02:34:45.743Z,54.30
2023-12-28T02:37:08.619Z,62.27
2023-12-28T02:39:31.830Z,75.93
2023-12-28T02:41:56.404Z,60.33
2023-12-28T02:46:42.124Z,70.23
2023-12-28T02:49:03.953Z,36.33
2023-12-28T02:51:28.567Z,69.03
2023-12-28T02:53:50.377Z,39.00
2023-12-28T02:56:12.210Z,46.93
2023-12-28T02:58:37.002Z,53.10
2023-12-28T03:00:59.841Z,52.40
2023-12-28T03:03:21.746Z,38.77
2023-12-28T03:05:44.050Z,59.33
2023-12-28T03:08:05.942Z,35.97
2023-12-28T03:10:27.711Z,63.00
2023-12-28T03:12:49.578Z,35.73
2023-12-28T03:15:14.063Z,49.87
2023-12-28T03:17:38.222Z,58.13
2023-12-28T03:20:01.809Z,58.67
2023-12-28T03:22:23.889Z,46.77
2023-12-28T03:24:48.263Z,41.40
2023-12-28T03:27:10.999Z,36.55
2023-12-28T03:29:32.842Z,27.67
2023-12-28T03:31:54.580Z,70.00
2023-12-28T03:34:18.760Z,35.77
2023-12-28T03:36:40.677Z,44.83
2023-12-28T03:39:02.519Z,34.10
2023-12-28T03:41:24.334Z,54.87
2023-12-28T03:43:47.770Z,50.70
2023-12-28T03:46:09.626Z,52.83
2023-12-28T03:48:31.484Z,58.67
2023-12-28T03:50:53.345Z,46.37
2023-12-28T03:53:15.954Z,47.03
2023-12-28T03:55:37.876Z,54.50
2023-12-28T03:58:00.180Z,52.90
2023-12-28T04:00:24.552Z,63.25
2023-12-28T04:02:48.675Z,46.92
2023-12-28T04:05:11.469Z,46.55
2023-12-28T04:07:33.267Z,45.63
2023-12-28T04:09:55.977Z,41.67
2023-12-28T04:12:17.829Z,43.07
2023-12-28T04:14:39.640Z,43.00
2023-12-28T04:17:01.479Z,64.77
2023-12-28T04:19:24.127Z,68.20
2023-12-28T04:21:46.028Z,31.97
2023-12-28T04:24:08.034Z,52.40
2023-12-28T04:26:31.434Z,24.40
2023-12-28T04:28:54.095Z,32.60
2023-12-28T04:31:16.129Z,50.87
2023-12-28T04:33:40.071Z,45.72
2023-12-28T04:36:06.714Z,47.60
2023-12-28T04:38:29.681Z,44.10
2023-12-28T04:40:51.492Z,69.57
2023-12-28T04:43:13.553Z,59.27
2023-12-28T04:45:35.627Z,33.47
2023-12-28T04:47:57.986Z,38.43
2023-12-28T04:50:20.051Z,44.23
2023-12-28T04:52:42.106Z,62.20
2023-12-28T04:55:04.816Z,35.57
2023-12-28T04:57:29.039Z,67.60
2023-12-28T04:59:51.034Z,28.13
2023-12-28T05:02:13.605Z,43.90
2023-12-28T05:04:41.709Z,66.67
2023-12-28T05:07:03.804Z,43.33
2023-12-28T05:09:26.044Z,44.13
2023-12-28T05:11:47.838Z,53.97
2023-12-28T05:14:10.970Z,49.87
2023-12-28T05:16:33.061Z,51.67
2023-12-28T05:18:55.000Z,54.57
2023-12-28T05:21:17.195Z,42.17
2023-12-28T05:23:39.076Z,51.30
2023-12-28T05:26:00.946Z,50.23
2023-12-28T05:28:22.669Z,57.43
2023-12-28T05:30:44.412Z,77.23
2023-12-28T05:33:06.393Z,61.97
2023-12-28T05:35:28.064Z,72.27
2023-12-28T05:37:49.761Z,48.77
2023-12-28T05:40:12.293Z,48.20
2023-12-28T05:42:34.078Z,54.03
2023-12-28T05:44:55.930Z,39.80
2023-12-28T05:47:17.728Z,44.00
2023-12-28T05:49:39.576Z,52.37
2023-12-28T05:52:01.472Z,35.27
2023-12-28T05:54:23.254Z,39.73
2023-12-28T05:56:45.015Z,35.50
2023-12-28T05:59:06.770Z,49.53
2023-12-28T06:01:28.860Z,39.17
2023-12-28T06:03:51.409Z,42.10
2023-12-28T06:06:13.234Z,48.67
2023-12-28T06:08:34.980Z,42.20
2023-12-28T06:10:57.243Z,46.63
2023-12-28T06:13:19.156Z,51.23
2023-12-28T06:15:41.126Z,52.83
2023-12-28T06:18:04.598Z,53.20
2023-12-28T06:20:26.488Z,56.77
2023-12-28T06:22:50.112Z,54.43
2023-12-28T06:25:13.623Z,55.33
2023-12-28T06:27:35.854Z,52.70
2023-12-28T06:29:57.725Z,49.67
2023-12-28T06:32:19.536Z,45.57
2023-12-28T06:34:41.320Z,51.17
2023-12-28T06:37:03.330Z,58.53
2023-12-28T06:39:25.242Z,66.07
2023-12-28T06:41:50.513Z,56.00
2023-12-28T06:44:14.890Z,54.33
2023-12-28T06:46:36.692Z,63.45
2023-12-28T06:49:00.318Z,57.60
2023-12-28T06:51:23.791Z,58.97
2023-12-28T06:53:46.230Z,55.27
2023-12-28T06:56:08.679Z,55.57
2023-12-28T06:58:30.477Z,56.13
2023-12-28T07:00:52.691Z,56.83
2023-12-28T07:03:14.766Z,47.07
2023-12-28T07:05:36.783Z,57.03
2023-12-28T07:07:58.653Z,38.90
2023-12-28T07:10:20.572Z,40.57
2023-12-28T07:12:42.378Z,52.93
2023-12-28T07:15:04.803Z,32.80
2023-12-28T07:17:26.552Z,41.07
2023-12-28T07:19:48.388Z,40.50
2023-12-28T07:22:10.161Z,51.37
2023-12-28T07:24:31.980Z,50.93
2023-12-28T07:26:53.885Z,40.97
2023-12-28T07:29:15.638Z,43.47
2023-12-28T07:31:38.221Z,45.33
2023-12-28T07:34:00.223Z,37.63
2023-12-28T07:36:22.376Z,39.57
2023-12-28T07:38:45.204Z,43.80
2023-12-28T07:41:07.324Z,34.33
2023-12-28T07:43:29.472Z,34.40
2023-12-28T07:45:51.281Z,35.87
2023-12-28T07:48:14.447Z,32.93
2023-12-28T07:50:36.219Z,32.23
2023-12-28T07:52:57.921Z,32.63
2023-12-28T07:55:20.638Z,34.87
2023-12-28T07:57:43.538Z,37.17
2023-12-28T08:00:06.765Z,44.20
2023-12-28T08:02:29.005Z,38.13
2023-12-28T08:04:51.076Z,38.80
2023-12-28T08:07:13.060Z,38.30
2023-12-28T08:09:36.351Z,48.60
2023-12-28T08:11:58.074Z,39.03
2023-12-28T08:14:20.276Z,48.53
2023-12-28T08:16:42.087Z,49.80
2023-12-28T08:19:04.524Z,48.83
2023-12-28T08:21:26.335Z,52.00
2023-12-28T08:23:48.094Z,51.30
2023-12-28T08:26:09.881Z,51.70
2023-12-28T08:28:32.583Z,65.40
2023-12-28T08:30:54.376Z,62.53
2023-12-28T08:33:16.651Z,53.97
2023-12-28T08:35:38.550Z,43.47
2023-12-28T08:38:00.768Z,58.40
2023-12-28T08:40:22.722Z,59.40
2023-12-28T08:42:44.974Z,62.93
2023-12-28T08:45:07.305Z,54.63
2023-12-28T08:47:29.220Z,65.83
2023-12-28T08:49:52.907Z,62.87
2023-12-28T08:52:14.913Z,64.07
2023-12-28T08:54:36.731Z,60.77
2023-12-28T08:57:00.017Z,73.20
2023-12-28T08:59:22.930Z,56.07
2023-12-28T09:01:44.801Z,66.53
2023-12-28T09:04:06.749Z,58.00
2023-12-28T09:06:28.928Z,54.27
2023-12-28T09:08:53.349Z,62.20
2023-12-28T09:11:15.763Z,56.80
2023-12-28T09:13:37.680Z,64.23
2023-12-28T09:16:00.277Z,56.33
2023-12-28T09:18:23.051Z,57.10
2023-12-28T09:20:45.072Z,54.60
2023-12-28T09:23:07.201Z,61.00
2023-12-28T09:25:28.959Z,64.07
2023-12-28T09:27:50.719Z,58.00
2023-12-28T09:30:12.912Z,62.33
2023-12-28T09:32:34.807Z,66.60
2023-12-28T09:34:56.690Z,69.87
2023-12-28T09:37:18.501Z,63.70
2023-12-28T09:39:40.330Z,45.67
2023-12-28T09:42:10.871Z,70.60
2023-12-28T09:44:34.128Z,51.90
2023-12-28T09:46:57.193Z,60.00
2023-12-28T09:49:19.533Z,70.77
2023-12-28T09:51:41.524Z,80.23
2023-12-28T09:54:05.074Z,58.97
2023-12-28T09:56:30.672Z,60.03
2023-12-28T09:58:54.373Z,67.10
2023-12-28T10:01:16.936Z,70.33
2023-12-28T10:03:38.931Z,66.40
2023-12-28T10:06:00.729Z,80.20
2023-12-28T10:08:22.637Z,65.87
2023-12-28T10:10:52.585Z,55.23
2023-12-28T10:13:16.693Z,75.50
2023-12-28T10:15:41.721Z,84.50
2023-12-28T10:18:04.011Z,64.27
2023-12-28T10:20:29.304Z,64.10
2023-12-28T10:22:52.466Z,69.17
2023-12-28T10:25:14.491Z,37.93
2023-12-28T10:27:43.468Z,70.80
2023-12-28T10:30:06.451Z,68.90
2023-12-28T10:32:28.996Z,58.90
2023-12-28T10:34:52.943Z,48.40
2023-12-28T10:37:19.887Z,83.40
2023-12-28T10:39:48.353Z,55.63
2023-12-28T10:42:15.350Z,58.83
2023-12-28T10:44:44.936Z,76.83
2023-12-28T10:47:18.359Z,51.67
2023-12-28T10:49:43.790Z,83.30
2023-12-28T10:52:09.960Z,56.60
2023-12-28T10:54:45.347Z,64.27
2023-12-28T10:57:24.235Z,61.57
2023-12-28T11:00:01.367Z,58.40
2023-12-28T11:02:33.228Z,66.27
2023-12-28T11:04:56.314Z,77.43
2023-12-28T11:07:22.496Z,87.13
2023-12-28T11:09:45.537Z,74.83
2023-12-28T11:12:09.560Z,73.63
2023-12-28T11:14:32.987Z,96.15
2023-12-28T11:17:03.557Z,89.13
2023-12-28T11:19:25.633Z,66.10
2023-12-28T11:21:48.580Z,72.43
2023-12-28T11:24:11.073Z,81.67
2023-12-28T11:26:33.019Z,78.60
2023-12-28T11:29:05.503Z,74.10
2023-12-28T11:31:27.439Z,84.00
2023-12-28T11:33:53.979Z,43.67
2023-12-28T11:36:41.533Z,46.83
2023-12-28T11:39:05.977Z,61.07
2023-12-28T11:43:55.878Z,76.00
2023-12-28T11:46:18.496Z,63.47
2023-12-28T11:48:40.423Z,63.30
2023-12-28T11:51:02.774Z,82.77
2023-12-28T11:53:24.945Z,75.10
2023-12-28T11:55:46.629Z,69.73
2023-12-28T11:58:08.491Z,73.60
2023-12-28T12:00:30.813Z,59.73
2023-12-28T12:02:52.551Z,63.10
2023-12-28T12:05:16.507Z,45.90
2023-12-28T12:07:38.325Z,48.35
2023-12-28T12:10:01.184Z,60.93
2023-12-28T12:12:23.400Z,61.23
2023-12-28T12:14:45.148Z,67.43
2023-12-28T12:17:07.328Z,51.30
2023-12-28T12:19:30.437Z,83.80
2023-12-28T12:21:57.191Z,53.53
2023-12-28T12:24:20.326Z,53.00
2023-12-28T12:26:42.100Z,57.83
2023-12-28T12:29:04.623Z,55.17
2023-12-28T12:31:27.702Z,60.27
2023-12-28T12:33:52.239Z,75.33
2023-12-28T12:36:14.593Z,79.27
2023-12-28T12:38:36.896Z,58.30
2023-12-28T12:40:59.210Z,52.87
2023-12-28T12:43:22.109Z,55.47
2023-12-28T12:45:45.325Z,41.60
2023-12-28T12:50:33.260Z,62.57
2023-12-28T12:52:55.707Z,48.07
2023-12-28T12:55:17.775Z,72.13
2023-12-28T12:57:41.484Z,75.50
2023-12-28T13:00:07.085Z,53.95
2023-12-28T13:02:28.990Z,67.13
2023-12-28T13:04:55.849Z,63.30
2023-12-28T13:07:17.627Z,45.93
2023-12-28T13:09:39.740Z,50.77
2023-12-28T13:12:01.569Z,58.90
2023-12-28T13:14:23.301Z,47.40
2023-12-28T13:16:45.012Z,80.07
2023-12-28T13:19:06.913Z,68.07
2023-12-28T13:21:28.914Z,52.87
2023-12-28T13:23:50.692Z,78.47
2023-12-28T13:26:12.425Z,65.80
2023-12-28T13:28:34.252Z,92.30
2023-12-28T13:30:57.145Z,60.90
2023-12-28T13:33:19.254Z,57.17
2023-12-28T13:35:41.129Z,46.07
2023-12-28T13:38:02.944Z,45.20
2023-12-28T13:40:24.758Z,76.27
2023-12-28T13:42:46.563Z,50.90
2023-12-28T13:45:09.382Z,56.80
2023-12-28T13:47:31.205Z,55.80
2023-12-28T13:49:53.122Z,71.53
2023-12-28T13:52:14.962Z,51.10
2023-12-28T13:54:36.732Z,53.67
2023-12-28T13:57:00.313Z,58.27
2023-12-28T13:59:22.150Z,77.50
2023-12-28T14:01:44.047Z,69.90
2023-12-28T14:04:06.212Z,63.73
2023-12-28T14:06:28.338Z,63.60
2023-12-28T14:08:50.124Z,65.50
2023-12-28T14:11:12.238Z,56.77
2023-12-28T14:13:35.790Z,72.57
2023-12-28T14:15:57.781Z,56.00
2023-12-28T14:18:19.783Z,70.57
2023-12-28T14:20:41.786Z,56.80
2023-12-28T14:23:06.315Z,65.97
2023-12-28T14:25:29.788Z,65.57
2023-12-28T14:27:52.898Z,70.33
2023-12-28T14:30:15.893Z,74.27
2023-12-28T14:32:38.541Z,53.87
2023-12-28T14:35:00.912Z,56.40
2023-12-28T14:37:22.709Z,83.57
2023-12-28T14:39:45.020Z,83.17
2023-12-28T14:42:07.092Z,60.17
2023-12-28T14:44:28.794Z,64.33
2023-12-28T14:46:50.570Z,57.30
2023-12-28T14:49:12.607Z,82.80
2023-12-28T14:51:34.653Z,66.57
2023-12-28T14:53:56.434Z,62.23
2023-12-28T14:56:18.208Z,80.07
2023-12-28T14:58:42.933Z,55.97
2023-12-28T15:01:06.746Z,83.10
2023-12-28T15:03:28.585Z,63.43
2023-12-28T15:05:52.270Z,58.73
2023-12-28T15:08:14.014Z,51.35
2023-12-28T15:10:36.943Z,42.43
2023-12-28T15:12:59.232Z,55.50
2023-12-28T15:15:21.772Z,64.33
2023-12-28T15:17:44.301Z,47.33
2023-12-28T15:20:09.046Z,49.80
2023-12-28T15:22:31.500Z,61.97
2023-12-28T15:24:54.096Z,56.07
2023-12-28T15:27:15.958Z,54.27
2023-12-28T15:29:37.750Z,56.87
2023-12-28T15:31:59.464Z,52.47
2023-12-28T15:34:21.502Z,69.77
2023-12-28T15:36:43.611Z,44.77
2023-12-28T15:39:06.571Z,54.20
2023-12-28T15:41:28.461Z,52.47
2023-12-28T15:43:50.306Z,55.10
2023-12-28T15:46:12.097Z,58.53
2023-12-28T15:48:36.954Z,49.80
2023-12-28T15:51:00.920Z,45.90
2023-12-28T15:53:22.629Z,47.27
2023-12-28T15:55:44.567Z,45.27
2023-12-28T15:58:06.600Z,45.03
2023-12-28T16:00:28.437Z,37.43
2023-12-28T16:02:50.911Z,41.97
2023-12-28T16:05:13.945Z,44.50
2023-12-28T16:07:35.888Z,56.10
2023-12-28T16:09:57.746Z,55.13
2023-12-28T16:12:19.546Z,45.20
2023-12-28T16:14:41.689Z,53.77
2023-12-28T16:17:04.099Z,56.60
2023-12-28T16:19:26.279Z,43.40
2023-12-28T16:21:48.956Z,34.30
2023-12-28T16:24:10.795Z,43.57
2023-12-28T16:26:32.581Z,35.77
2023-12-28T16:28:54.367Z,52.10
2023-12-28T16:31:16.331Z,48.30
2023-12-28T16:33:38.372Z,47.30
2023-12-28T16:36:00.202Z,52.17
2023-12-28T16:38:22.473Z,43.63
2023-12-28T16:40:44.345Z,36.80
2023-12-28T16:43:06.179Z,49.03
2023-12-28T16:45:28.056Z,39.77
2023-12-28T16:47:49.959Z,38.87
2023-12-28T16:50:11.980Z,36.63
2023-12-28T16:52:33.813Z,48.93
2023-12-28T16:54:56.613Z,46.03
2023-12-28T16:57:18.389Z,36.93
2023-12-28T16:59:40.272Z,33.47
2023-12-28T17:02:01.989Z,37.53
2023-12-28T17:04:24.611Z,36.10
2023-12-28T17:06:46.735Z,31.27
2023-12-28T17:09:09.121Z,34.23
2023-12-28T17:11:32.608Z,26.57
2023-12-28T17:13:54.860Z,34.93
2023-12-28T17:16:17.014Z,33.63
2023-12-28T17:18:39.175Z,27.33
2023-12-28T17:21:01.384Z,40.87
2023-12-28T17:23:27.742Z,26.80
2023-12-28T17:26:26.078Z,32.50
2023-12-28T17:29:03.479Z,31.63
2023-12-28T17:31:30.376Z,27.90
2023-12-28T17:33:52.936Z,29.63
2023-12-28T17:36:15.963Z,33.83
2023-12-28T17:38:38.629Z,32.57
2023-12-28T17:41:00.784Z,39.20
2023-12-28T17:43:34.962Z,29.60
2023-12-28T17:46:21.923Z,33.10
2023-12-28T17:48:49.713Z,34.13
2023-12-28T17:51:13.622Z,26.37
2023-12-28T17:53:35.996Z,35.05
2023-12-28T17:55:58.085Z,34.33
2023-12-28T17:58:20.093Z,31.97
2023-12-28T18:00:42.204Z,38.13
2023-12-28T18:03:05.208Z,36.37
2023-12-28T18:05:27.040Z,29.47
2023-12-28T18:07:49.053Z,37.13
2023-12-28T18:10:12.387Z,32.63
2023-12-28T18:12:34.217Z,43.77
2023-12-28T18:14:56.113Z,34.37
2023-12-28T18:17:17.979Z,36.13
2023-12-28T18:19:40.176Z,37.27
2023-12-28T18:22:02.193Z,39.67
2023-12-28T18:24:24.385Z,46.33
2023-12-28T18:26:46.940Z,40.37
2023-12-28T18:29:09.386Z,33.53
2023-12-28T18:31:31.329Z,28.33
2023-12-28T18:33:53.443Z,33.03
2023-12-28T18:36:19.198Z,29.43
2023-12-28T18:38:41.294Z,32.23
2023-12-28T18:41:03.516Z,32.07
2023-12-28T18:43:25.337Z,23.70
2023-12-28T18:45:47.554Z,31.37
2023-12-28T18:48:13.478Z,33.80
2023-12-28T18:50:35.615Z,32.63
2023-12-28T18:52:57.534Z,29.57
2023-12-28T18:55:19.419Z,37.07
2023-12-28T18:57:41.346Z,35.57
2023-12-28T19:00:03.475Z,33.27
2023-12-28T19:02:27.179Z,36.47
2023-12-28T19:04:49.377Z,39.38
2023-12-28T19:07:11.242Z,39.17
2023-12-28T19:09:33.084Z,34.30
2023-12-28T19:11:54.912Z,34.03
2023-12-28T19:14:17.520Z,39.80
2023-12-28T19:16:39.326Z,34.10
2023-12-28T19:19:01.460Z,36.20
2023-12-28T19:21:24.162Z,35.77
2023-12-28T19:23:46.354Z,38.33
2023-12-28T19:26:08.235Z,42.57
2023-12-28T19:28:30.027Z,43.53
2023-12-28T19:30:51.829Z,33.00
2023-12-28T19:33:13.895Z,53.80
2023-12-28T19:35:36.742Z,35.53
2023-12-28T19:37:58.844Z,38.47
2023-12-28T19:40:20.783Z,37.27
2023-12-28T19:42:42.545Z,42.73
2023-12-28T19:45:05.082Z,39.20
2023-12-28T19:47:27.029Z,40.63
2023-12-28T19:49:48.881Z,34.73
2023-12-28T19:52:10.886Z,38.77
2023-12-28T19:54:32.782Z,41.83
2023-12-28T19:56:54.603Z,38.73
2023-12-28T19:59:16.428Z,35.77
2023-12-28T20:01:46.352Z,32.70
2023-12-28T20:04:09.195Z,33.23
2023-12-28T20:06:31.117Z,33.13
2023-12-28T20:08:52.938Z,29.07
2023-12-28T20:11:14.732Z,37.43
2023-12-28T20:13:36.548Z,33.17
2023-12-28T20:15:58.584Z,29.33
2023-12-28T20:18:20.518Z,23.57
2023-12-28T20:20:42.656Z,25.33
2023-12-28T20:23:04.837Z,21.83
2023-12-28T20:25:26.900Z,24.30
2023-12-28T20:27:48.680Z,24.10
2023-12-28T20:30:14.377Z,28.67
2023-12-28T20:32:36.281Z,28.90
2023-12-28T20:34:58.285Z,30.53
2023-12-28T20:37:20.181Z,30.00
2023-12-28T20:39:42.013Z,33.27
2023-12-28T20:42:04.328Z,25.03
2023-12-28T20:44:26.151Z,28.63
2023-12-28T20:46:48.607Z,34.67
2023-12-28T20:49:10.600Z,28.87
2023-12-28T20:51:32.644Z,32.33
2023-12-28T20:53:54.855Z,28.90
2023-12-28T20:56:16.698Z,36.57
2023-12-28T20:58:38.623Z,32.87
2023-12-28T21:01:00.707Z,35.27
2023-12-28T21:03:22.983Z,32.20
2023-12-28T21:05:45.142Z,39.10
2023-12-28T21:08:08.031Z,33.30
2023-12-28T21:10:30.299Z,31.30
2023-12-28T21:13:02.267Z,37.60
2023-12-28T21:15:24.419Z,33.10
2023-12-28T21:17:46.376Z,40.83
2023-12-28T21:20:11.146Z,31.70
2023-12-28T21:22:33.101Z,37.30
2023-12-28T21:24:55.254Z,27.97
2023-12-28T21:27:18.403Z,31.70
2023-12-28T21:29:40.804Z,36.27
2023-12-28T21:32:02.760Z,30.30
2023-12-28T21:34:24.829Z,37.00
2023-12-28T21:36:49.840Z,34.07
2023-12-28T21:39:13.947Z,29.87
2023-12-28T21:41:36.011Z,28.40
2023-12-28T21:43:57.969Z,39.67
2023-12-28T21:46:19.999Z,34.97
2023-12-28T21:48:42.110Z,30.83
2023-12-28T21:51:04.283Z,32.87
2023-12-28T21:53:26.048Z,36.67
2023-12-28T21:55:47.825Z,39.83
2023-12-28T21:58:09.719Z,38.20
2023-12-28T22:00:32.543Z,35.93
2023-12-28T22:02:54.483Z,43.87
2023-12-28T22:05:16.498Z,45.90
2023-12-28T22:07:38.422Z,38.50
2023-12-28T22:10:00.246Z,46.80
2023-12-28T22:12:24.002Z,52.43
2023-12-28T22:14:45.721Z,56.13
2023-12-28T22:17:07.522Z,51.53
2023-12-28T22:19:29.619Z,63.33
2023-12-28T22:21:52.625Z,49.53
2023-12-28T22:24:14.442Z,62.73
2023-12-28T22:26:38.128Z,48.70
2023-12-28T22:29:00.020Z,45.78
2023-12-28T22:31:23.911Z,56.23
2023-12-28T22:33:46.073Z,48.10
2023-12-28T22:36:08.348Z,58.73
2023-12-28T22:38:30.073Z,56.97
2023-12-28T22:40:51.954Z,58.33
2023-12-28T22:43:13.714Z,53.33
2023-12-28T22:45:35.885Z,59.03
2023-12-28T22:47:57.971Z,55.97
2023-12-28T22:50:19.796Z,58.40
2023-12-28T22:52:41.752Z,66.80
2023-12-28T22:55:06.314Z,79.97
2023-12-28T22:57:28.258Z,62.47
2023-12-28T22:59:50.046Z,67.90
2023-12-28T23:02:13.792Z,60.90
2023-12-28T23:04:46.212Z,67.38
2023-12-28T23:07:12.329Z,45.83
2023-12-28T23:09:34.193Z,70.57
2023-12-28T23:11:58.343Z,64.23
2023-12-28T23:14:20.159Z,76.88
2023-12-28T23:16:41.909Z,79.60
2023-12-28T23:19:04.568Z,68.83
2023-12-28T23:21:26.691Z,70.13
2023-12-28T23:23:48.491Z,65.27
2023-12-28T23:26:10.279Z,58.87
2023-12-28T23:28:32.194Z,66.07
2023-12-28T23:30:54.100Z,66.17
2023-12-28T23:33:16.099Z,72.10
2023-12-28T23:35:37.883Z,64.87
2023-12-28T23:37:59.895Z,67.03
2023-12-28T23:40:21.803Z,64.00
2023-12-28T23:42:43.637Z,61.07
2023-12-28T23:45:06.179Z,69.43
2023-12-28T23:47:28.273Z,68.10
2023-12-28T23:49:50.065Z,62.30
2023-12-28T23:52:12.014Z,71.33
2023-12-28T23:54:34.143Z,54.70
2023-12-28T23:56:56.332Z,51.43
2023-12-28T23:59:18.048Z,63.33
